Terminal Aerodrome Forecast
Issued by NWS

Home | Current Version | Previous Version | Text Only | Print | Product List | Glossary On
Versions: 1 2 3 4 5 6 7 8 9 10 11 12 13 14 15
678
FTUS44 KBMX 292340
TAFMGM
TAF
KMGM 292340Z 3000/3024 30006KT P6SM VCTS SCT050CB BKN090
     FM300200 00000KT P6SM FEW120
     FM301600 30007KT P6SM SCT050=

USA.gov is the U.S. government's official web portal to all federal, state and local government web resources and services.